createdAt,value
2022-09-18T00:02:09.749Z,5.53
2022-09-18T00:05:00.493Z,4.10
2022-09-18T00:10:46.832Z,2.57
2022-09-18T00:13:20.295Z,4.23
2022-09-18T00:17:06.958Z,4.63
2022-09-18T00:20:06.801Z,5.00
2022-09-18T00:23:05.616Z,7.07
2022-09-18T00:29:26.007Z,5.13
2022-09-18T00:31:56.071Z,7.43
2022-09-18T00:34:24.747Z,4.63
2022-09-18T00:37:10.024Z,4.03
2022-09-18T00:39:38.161Z,3.63
2022-09-18T00:42:30.028Z,6.63
2022-09-18T00:45:13.669Z,3.30
2022-09-18T00:47:45.486Z,6.13
2022-09-18T00:50:17.719Z,5.97
2022-09-18T00:52:51.877Z,5.07
2022-09-18T00:55:49.621Z,5.33
2022-09-18T00:58:17.499Z,4.40
2022-09-18T01:00:54.341Z,4.90
2022-09-18T01:03:23.101Z,6.10
2022-09-18T01:06:33.052Z,6.27
2022-09-18T01:09:10.418Z,5.63
2022-09-18T01:11:48.188Z,5.70
2022-09-18T01:17:18.893Z,1.77
2022-09-18T01:20:28.277Z,4.27
2022-09-18T01:23:14.267Z,3.17
2022-09-18T01:25:57.976Z,2.70
2022-09-18T01:28:35.214Z,3.10
2022-09-18T01:31:28.002Z,3.90
2022-09-18T01:34:03.172Z,3.50
2022-09-18T01:36:36.327Z,2.93
2022-09-18T01:39:20.989Z,5.73
2022-09-18T01:42:04.367Z,4.03
2022-09-18T01:44:40.194Z,6.07
2022-09-18T01:50:02.721Z,4.30
2022-09-18T01:58:39.076Z,2.20
2022-09-18T02:01:13.206Z,2.40
2022-09-18T02:03:50.088Z,3.87
2022-09-18T02:06:25.465Z,5.23
2022-09-18T02:09:26.623Z,4.13
2022-09-18T02:12:07.983Z,3.90
2022-09-18T02:14:44.418Z,3.63
2022-09-18T02:17:18.764Z,4.23
2022-09-18T02:19:50.912Z,2.57
2022-09-18T02:22:25.779Z,3.67
2022-09-18T02:24:58.151Z,5.17
2022-09-18T02:27:27.329Z,5.63
2022-09-18T02:29:56.187Z,6.00
2022-09-18T02:32:26.139Z,3.57
2022-09-18T02:34:57.103Z,4.10
2022-09-18T02:37:33.987Z,3.93
2022-09-18T02:40:17.399Z,3.93
2022-09-18T02:42:56.602Z,4.23
2022-09-18T02:45:32.573Z,6.77
2022-09-18T02:48:15.286Z,4.73
2022-09-18T02:50:52.819Z,6.70
2022-09-18T02:53:31.013Z,4.23
2022-09-18T02:56:05.951Z,4.47
2022-09-18T02:58:41.060Z,5.57
2022-09-18T03:01:09.659Z,5.00
2022-09-18T03:03:40.047Z,5.27
2022-09-18T03:06:09.971Z,4.07
2022-09-18T03:08:37.976Z,6.30
2022-09-18T03:11:06.234Z,5.10
2022-09-18T03:13:36.281Z,4.50
2022-09-18T03:16:04.492Z,3.13
2022-09-18T03:18:35.268Z,6.40
2022-09-18T03:21:05.023Z,4.23
2022-09-18T03:23:32.781Z,4.67
2022-09-18T03:26:11.595Z,4.50
2022-09-18T03:28:41.913Z,5.73
2022-09-18T03:31:12.634Z,4.03
2022-09-18T03:33:43.024Z,5.40
2022-09-18T03:36:15.226Z,5.80
2022-09-18T03:38:44.384Z,3.40
2022-09-18T03:41:12.203Z,3.67
2022-09-18T03:43:42.142Z,3.47
2022-09-18T03:46:10.410Z,2.07
2022-09-18T03:48:43.478Z,6.20
2022-09-18T03:51:12.756Z,3.87
2022-09-18T03:53:41.440Z,2.43
2022-09-18T03:56:09.231Z,3.60
2022-09-18T03:58:38.083Z,4.43
2022-09-18T04:01:07.370Z,6.80
2022-09-18T04:03:35.884Z,8.77
2022-09-18T04:06:03.977Z,6.27
2022-09-18T04:08:34.480Z,3.60
2022-09-18T04:11:03.904Z,4.10
2022-09-18T04:13:32.485Z,4.20
2022-09-18T04:16:06.466Z,3.67
2022-09-18T04:18:40.517Z,4.23
2022-09-18T04:21:09.271Z,6.80
2022-09-18T04:23:39.554Z,4.23
2022-09-18T04:26:10.499Z,3.57
2022-09-18T04:28:41.613Z,3.20
2022-09-18T04:31:09.714Z,4.00
2022-09-18T04:33:41.246Z,2.47
2022-09-18T04:36:10.420Z,3.13
2022-09-18T04:38:39.711Z,7.03
2022-09-18T04:41:07.681Z,3.77
2022-09-18T04:43:38.329Z,3.67
2022-09-18T04:46:07.248Z,4.27
2022-09-18T04:48:43.900Z,3.67
2022-09-18T04:51:18.500Z,4.63
2022-09-18T04:54:08.621Z,4.90
2022-09-18T04:56:38.067Z,5.67
2022-09-18T04:59:12.817Z,5.90
2022-09-18T05:01:42.991Z,4.30
2022-09-18T05:04:11.690Z,2.70
2022-09-18T05:06:58.921Z,5.73
2022-09-18T05:09:46.009Z,7.77
2022-09-18T05:12:15.812Z,3.13
2022-09-18T05:14:48.014Z,4.33
2022-09-18T05:17:18.928Z,6.43
2022-09-18T05:19:48.681Z,5.73
2022-09-18T05:22:24.948Z,4.10
2022-09-18T05:24:54.918Z,4.80
2022-09-18T05:27:33.434Z,5.23
2022-09-18T05:30:01.471Z,6.77
2022-09-18T05:32:33.314Z,3.93
2022-09-18T05:35:01.271Z,6.43
2022-09-18T05:37:35.948Z,3.80
2022-09-18T05:40:06.105Z,3.77
2022-09-18T05:42:33.943Z,5.97
2022-09-18T05:51:18.669Z,3.47
2022-09-18T05:53:49.029Z,4.27
2022-09-18T05:56:18.647Z,3.60
2022-09-18T05:58:46.840Z,3.40
2022-09-18T06:01:17.497Z,5.07
2022-09-18T06:03:45.377Z,2.83
2022-09-18T06:06:13.211Z,6.53
2022-09-18T06:08:41.037Z,7.90
2022-09-18T06:11:09.136Z,8.33
2022-09-18T06:13:38.386Z,3.70
2022-09-18T06:16:06.442Z,4.53
2022-09-18T06:18:34.436Z,6.07
2022-09-18T06:21:02.251Z,4.03
2022-09-18T06:23:30.348Z,4.77
2022-09-18T06:25:59.798Z,5.77
2022-09-18T06:28:28.193Z,6.43
2022-09-18T06:30:58.714Z,3.17
2022-09-18T06:33:29.282Z,2.30
2022-09-18T06:36:01.071Z,2.47
2022-09-18T06:38:29.904Z,5.63
2022-09-18T06:40:57.750Z,3.90
2022-09-18T06:43:25.576Z,2.13
2022-09-18T06:45:54.612Z,2.67
2022-09-18T06:48:29.220Z,3.27
2022-09-18T06:50:58.308Z,6.07
2022-09-18T06:53:27.035Z,3.27
2022-09-18T06:56:02.086Z,1.00
2022-09-18T06:58:31.686Z,2.83
2022-09-18T07:01:01.211Z,3.13
2022-09-18T07:03:30.514Z,5.23
2022-09-18T07:06:04.154Z,3.67
2022-09-18T07:08:47.771Z,3.20
2022-09-18T07:11:25.293Z,2.47
2022-09-18T07:14:00.066Z,2.03
2022-09-18T07:16:28.061Z,3.80
2022-09-18T07:19:14.732Z,3.57
2022-09-18T07:21:42.595Z,2.97
2022-09-18T07:26:58.037Z,2.00
2022-09-18T07:32:24.282Z,3.40
2022-09-18T07:38:02.014Z,3.17
2022-09-18T07:40:33.966Z,2.37
2022-09-18T07:43:08.439Z,3.73
2022-09-18T07:45:36.659Z,3.73
2022-09-18T07:48:08.151Z,2.40
2022-09-18T07:50:50.847Z,3.57
2022-09-18T07:53:21.589Z,1.77
2022-09-18T07:55:59.695Z,2.70
2022-09-18T07:58:28.856Z,4.43
2022-09-18T08:01:13.115Z,3.23
2022-09-18T08:03:45.900Z,4.03
2022-09-18T08:06:15.122Z,3.57
2022-09-18T08:08:48.395Z,3.07
2022-09-18T08:11:18.968Z,3.70
2022-09-18T08:13:49.432Z,3.17
2022-09-18T08:16:54.415Z,4.73
2022-09-18T08:19:22.190Z,4.80
2022-09-18T08:21:51.776Z,3.60
2022-09-18T08:24:21.833Z,4.43
2022-09-18T08:26:50.411Z,1.33
2022-09-18T08:29:28.392Z,3.67
2022-09-18T08:31:56.823Z,3.27
2022-09-18T08:34:27.358Z,5.47
2022-09-18T08:36:57.496Z,5.70
2022-09-18T08:39:50.288Z,2.23
2022-09-18T08:42:28.580Z,4.43
2022-09-18T08:45:20.754Z,4.20
2022-09-18T08:47:54.305Z,2.17
2022-09-18T08:54:08.044Z,3.73
2022-09-18T08:56:49.913Z,2.63
2022-09-18T08:59:29.100Z,3.03
2022-09-18T09:02:31.058Z,3.77
2022-09-18T09:08:46.402Z,2.90
2022-09-18T09:11:31.009Z,2.80
2022-09-18T09:14:17.048Z,3.87
2022-09-18T09:16:48.137Z,2.67
2022-09-18T09:19:31.269Z,1.53
2022-09-18T09:22:07.475Z,1.83
2022-09-18T09:24:37.700Z,4.23
2022-09-18T09:30:07.014Z,2.90
2022-09-18T09:32:48.566Z,1.00
2022-09-18T09:35:27.220Z,1.53
2022-09-18T09:37:58.693Z,1.87
2022-09-18T09:40:43.742Z,2.70
2022-09-18T09:43:24.084Z,3.23
2022-09-18T09:45:55.280Z,4.20
2022-09-18T09:48:30.146Z,3.00
2022-09-18T09:51:12.144Z,3.17
2022-09-18T09:53:43.262Z,4.40
2022-09-18T09:56:20.670Z,3.00
2022-09-18T09:58:59.163Z,3.43
2022-09-18T10:01:48.919Z,3.57
2022-09-18T10:04:27.269Z,4.03
2022-09-18T10:07:06.468Z,3.70
2022-09-18T10:09:47.061Z,3.20
2022-09-18T10:12:25.717Z,2.90
2022-09-18T10:14:56.703Z,2.87
2022-09-18T10:17:44.733Z,2.10
2022-09-18T10:20:17.929Z,4.07
2022-09-18T10:22:52.617Z,2.63
2022-09-18T10:25:33.148Z,3.73
2022-09-18T10:28:02.449Z,3.10
2022-09-18T10:30:35.610Z,6.50
2022-09-18T10:34:00.567Z,5.53
2022-09-18T10:40:15.012Z,2.17
2022-09-18T10:42:48.168Z,2.10
2022-09-18T10:48:25.893Z,2.10
2022-09-18T10:51:35.845Z,3.00
2022-09-18T10:54:14.905Z,1.80
2022-09-18T10:56:47.780Z,3.33
2022-09-18T10:59:43.107Z,3.13
2022-09-18T11:02:34.923Z,3.77
2022-09-18T11:05:06.753Z,2.23
2022-09-18T11:07:40.311Z,3.70
2022-09-18T11:10:14.181Z,4.63
2022-09-18T11:19:33.820Z,2.00
2022-09-18T11:23:08.179Z,3.77
2022-09-18T11:26:20.667Z,4.03
2022-09-18T11:29:06.643Z,2.50
2022-09-18T11:31:43.483Z,2.33
2022-09-18T11:34:26.988Z,2.37
2022-09-18T11:37:02.338Z,2.93
2022-09-18T11:39:43.386Z,3.50
2022-09-18T11:42:14.670Z,4.33
2022-09-18T11:45:14.297Z,4.37
2022-09-18T11:47:45.893Z,3.53
2022-09-18T11:50:18.809Z,2.53
2022-09-18T11:52:49.710Z,3.10
2022-09-18T11:55:29.550Z,3.23
2022-09-18T11:58:03.355Z,1.33
2022-09-18T12:00:41.833Z,4.77
2022-09-18T12:03:19.587Z,3.80
2022-09-18T12:06:41.466Z,1.50
2022-09-18T12:09:19.612Z,2.43
2022-09-18T12:11:57.313Z,4.23
2022-09-18T12:14:32.253Z,1.03
2022-09-18T12:17:17.339Z,5.67
2022-09-18T12:20:12.720Z,2.67
2022-09-18T12:22:48.718Z,3.87
2022-09-18T12:25:18.263Z,3.07
2022-09-18T12:31:04.272Z,7.03
2022-09-18T12:36:42.338Z,3.73
2022-09-18T12:39:33.923Z,2.33
2022-09-18T12:42:20.415Z,3.27
2022-09-18T12:45:28.919Z,5.03
2022-09-18T12:48:12.488Z,3.83
2022-09-18T12:50:59.836Z,1.43
2022-09-18T12:53:39.330Z,0.93
2022-09-18T12:56:19.523Z,1.57
2022-09-18T12:59:30.395Z,4.40
2022-09-18T13:02:17.105Z,3.00
2022-09-18T13:05:08.860Z,1.63
2022-09-18T13:07:52.588Z,2.73
2022-09-18T13:10:23.941Z,1.80
2022-09-18T13:13:09.508Z,3.50
2022-09-18T13:18:40.189Z,4.73
2022-09-18T13:21:22.247Z,2.70
2022-09-18T13:23:56.097Z,0.77
2022-09-18T13:26:28.412Z,4.33
2022-09-18T13:28:56.355Z,3.43
2022-09-18T13:31:28.856Z,2.63
2022-09-18T13:33:58.658Z,2.80
2022-09-18T13:36:30.100Z,0.73
2022-09-18T13:39:03.749Z,1.23
2022-09-18T13:44:54.461Z,1.67
2022-09-18T13:47:24.538Z,3.43
2022-09-18T13:49:56.364Z,1.80
2022-09-18T13:52:44.752Z,1.70
2022-09-18T13:55:52.377Z,3.57
2022-09-18T13:59:00.365Z,1.27
2022-09-18T14:02:25.013Z,4.17
2022-09-18T14:05:25.907Z,2.37
2022-09-18T14:08:45.077Z,3.80
2022-09-18T14:11:15.712Z,4.53
2022-09-18T14:14:08.179Z,2.43
2022-09-18T14:16:57.993Z,1.70
2022-09-18T14:19:34.660Z,2.10
2022-09-18T14:25:03.454Z,1.60
2022-09-18T14:27:41.055Z,4.27
2022-09-18T14:30:37.961Z,4.17
2022-09-18T14:33:36.982Z,2.87
2022-09-18T14:36:11.812Z,4.67
2022-09-18T14:38:42.505Z,2.27
2022-09-18T14:41:19.262Z,3.40
2022-09-18T14:43:55.699Z,2.63
2022-09-18T14:46:27.715Z,2.10
2022-09-18T14:48:56.983Z,2.93
2022-09-18T14:51:49.303Z,2.10
2022-09-18T14:54:25.874Z,3.30
2022-09-18T14:56:58.214Z,2.33
2022-09-18T14:59:31.189Z,1.37
2022-09-18T15:02:40.829Z,2.30
2022-09-18T15:05:16.722Z,4.90
2022-09-18T15:07:49.010Z,1.80
2022-09-18T15:10:21.083Z,1.20
2022-09-18T15:12:49.544Z,1.83
2022-09-18T15:15:32.976Z,1.83
2022-09-18T15:18:04.297Z,2.43
2022-09-18T15:20:33.572Z,2.57
2022-09-18T15:23:01.415Z,3.50
2022-09-18T15:25:32.808Z,1.57
2022-09-18T15:28:11.267Z,1.50
2022-09-18T15:30:42.773Z,1.90
2022-09-18T15:33:30.789Z,2.97
2022-09-18T15:36:00.400Z,1.93
2022-09-18T15:38:35.098Z,3.10
2022-09-18T15:41:27.285Z,4.33
2022-09-18T15:43:55.978Z,1.80
2022-09-18T15:46:35.178Z,2.47
2022-09-18T15:49:27.651Z,2.53
2022-09-18T15:52:00.580Z,2.53
2022-09-18T15:54:28.899Z,2.53
2022-09-18T15:56:58.677Z,1.97
2022-09-18T15:59:34.917Z,2.80
2022-09-18T16:02:33.748Z,2.33
2022-09-18T16:05:08.491Z,2.70
2022-09-18T16:07:38.820Z,6.73
2022-09-18T16:10:45.646Z,1.80
2022-09-18T16:13:38.900Z,3.33
2022-09-18T16:16:46.995Z,2.83
2022-09-18T16:19:17.306Z,3.43
2022-09-18T16:21:52.789Z,2.07
2022-09-18T16:24:29.953Z,2.63
2022-09-18T16:27:19.319Z,3.00
2022-09-18T16:30:08.421Z,2.03
2022-09-18T16:32:36.279Z,3.77
2022-09-18T16:35:11.133Z,1.63
2022-09-18T16:40:54.815Z,2.50
2022-09-18T16:43:26.339Z,4.30
2022-09-18T16:45:54.896Z,3.73
2022-09-18T16:51:08.825Z,3.87
2022-09-18T16:53:38.263Z,3.33
2022-09-18T16:56:19.588Z,6.97
2022-09-18T16:58:49.873Z,4.57
2022-09-18T17:01:26.065Z,3.03
2022-09-18T17:03:54.768Z,2.77
2022-09-18T17:06:22.595Z,3.87
2022-09-18T17:08:53.885Z,5.20
2022-09-18T17:11:23.627Z,4.40
2022-09-18T17:13:51.694Z,5.27
2022-09-18T17:16:43.448Z,8.07
2022-09-18T17:19:18.846Z,6.53
2022-09-18T17:22:06.567Z,6.00
2022-09-18T17:24:47.880Z,1.87
2022-09-18T17:30:34.586Z,5.50
2022-09-18T17:33:10.037Z,6.37
2022-09-18T17:35:37.859Z,6.73
2022-09-18T17:38:06.009Z,4.80
2022-09-18T17:40:34.150Z,7.27
2022-09-18T17:43:15.630Z,3.77
2022-09-18T17:45:50.353Z,3.30
2022-09-18T17:48:39.765Z,4.30
2022-09-18T17:51:37.455Z,4.03
2022-09-18T17:54:06.584Z,6.07
2022-09-18T17:56:35.962Z,6.67
2022-09-18T17:59:08.951Z,4.50
2022-09-18T18:01:42.995Z,5.07
2022-09-18T18:04:11.662Z,4.37
2022-09-18T18:06:39.791Z,9.20
2022-09-18T18:09:10.827Z,6.97
2022-09-18T18:17:44.673Z,11.17
2022-09-18T18:20:13.646Z,8.57
2022-09-18T18:22:41.922Z,5.30
2022-09-18T18:25:26.903Z,9.03
2022-09-18T18:27:55.455Z,4.67
2022-09-18T18:30:40.790Z,8.83
2022-09-18T18:33:11.422Z,11.37
2022-09-18T18:35:44.997Z,7.60
2022-09-18T18:38:18.153Z,15.40
2022-09-18T18:40:47.583Z,8.50
2022-09-18T18:43:16.356Z,7.67
2022-09-18T18:45:55.692Z,8.97
2022-09-18T18:48:28.983Z,6.83
2022-09-18T18:51:08.518Z,7.20
2022-09-18T18:53:36.940Z,4.80
2022-09-18T18:56:08.916Z,5.07
2022-09-18T18:58:46.602Z,10.20
2022-09-18T19:01:30.012Z,5.20
2022-09-18T19:04:02.541Z,4.37
2022-09-18T19:06:36.476Z,6.93
2022-09-18T19:09:10.139Z,5.07
2022-09-18T19:11:48.201Z,9.97
2022-09-18T19:14:18.910Z,8.40
2022-09-18T19:16:50.097Z,4.97
2022-09-18T19:19:21.243Z,6.83
2022-09-18T19:21:49.428Z,7.43
2022-09-18T19:24:18.522Z,8.47
2022-09-18T19:26:48.181Z,7.63
2022-09-18T19:29:19.264Z,8.97
2022-09-18T19:32:00.897Z,4.63
2022-09-18T19:34:28.723Z,4.63
2022-09-18T19:36:56.593Z,4.30
2022-09-18T19:39:24.652Z,4.43
2022-09-18T19:41:56.193Z,7.40
2022-09-18T19:44:31.162Z,4.40
2022-09-18T19:47:04.228Z,9.53
2022-09-18T19:49:34.682Z,5.57
2022-09-18T19:52:03.242Z,6.47
2022-09-18T19:54:31.555Z,10.43
2022-09-18T19:56:59.996Z,11.53
2022-09-18T19:59:27.836Z,5.83
2022-09-18T20:01:55.810Z,5.23
2022-09-18T20:04:25.801Z,9.73
2022-09-18T20:06:55.820Z,7.70
2022-09-18T20:09:28.586Z,8.60
2022-09-18T20:11:57.244Z,5.40
2022-09-18T20:14:25.407Z,8.37
2022-09-18T20:16:54.900Z,8.17
2022-09-18T20:19:24.706Z,5.80
2022-09-18T20:21:53.747Z,7.10
2022-09-18T20:24:21.641Z,6.20
2022-09-18T20:26:51.135Z,8.60
2022-09-18T20:29:19.701Z,12.67
2022-09-18T20:31:50.016Z,8.33
2022-09-18T20:34:22.288Z,6.33
2022-09-18T20:36:53.667Z,8.70
2022-09-18T20:39:22.135Z,12.90
2022-09-18T20:41:50.672Z,11.70
2022-09-18T20:44:24.340Z,10.37
2022-09-18T20:46:53.121Z,7.20
2022-09-18T20:49:21.818Z,7.53
2022-09-18T20:51:51.174Z,9.63
2022-09-18T20:54:23.929Z,5.53
2022-09-18T20:56:54.244Z,7.33
2022-09-18T20:59:22.114Z,9.23
2022-09-18T21:01:52.731Z,8.03
2022-09-18T21:04:22.129Z,12.20
2022-09-18T21:06:56.180Z,8.50
2022-09-18T21:09:26.273Z,12.03
2022-09-18T21:11:55.036Z,9.40
2022-09-18T21:14:25.444Z,6.97
2022-09-18T21:16:55.799Z,10.03
2022-09-18T21:19:26.305Z,9.90
2022-09-18T21:22:03.226Z,13.97
2022-09-18T21:24:33.061Z,7.93
2022-09-18T21:27:00.900Z,7.93
2022-09-18T21:29:34.470Z,10.17
2022-09-18T21:32:02.472Z,9.57
2022-09-18T21:34:34.820Z,9.43
2022-09-18T21:37:12.715Z,9.17
2022-09-18T21:39:42.473Z,10.27
2022-09-18T21:44:52.552Z,11.40
2022-09-18T21:47:25.622Z,11.67
2022-09-18T21:49:53.523Z,10.67
2022-09-18T21:52:24.600Z,15.73
2022-09-18T21:54:52.463Z,6.57
2022-09-18T21:57:20.280Z,9.93
2022-09-18T21:59:51.948Z,7.77
2022-09-18T22:02:22.003Z,6.00
2022-09-18T22:04:49.879Z,14.00
2022-09-18T22:07:20.610Z,13.30
2022-09-18T22:09:52.009Z,8.97
2022-09-18T22:12:20.197Z,12.50
2022-09-18T22:14:49.899Z,7.40
2022-09-18T22:17:18.177Z,10.13
2022-09-18T22:19:46.061Z,14.07
2022-09-18T22:22:13.898Z,9.03
2022-09-18T22:24:41.723Z,5.20
2022-09-18T22:27:12.944Z,13.83
2022-09-18T22:29:43.376Z,11.00
2022-09-18T22:32:12.163Z,8.17
2022-09-18T22:34:41.589Z,5.83
2022-09-18T22:37:11.086Z,9.47
2022-09-18T22:39:39.383Z,6.53
2022-09-18T22:42:07.582Z,6.80
2022-09-18T22:44:36.718Z,6.30
2022-09-18T22:47:06.909Z,9.03
2022-09-18T22:49:42.764Z,8.20
2022-09-18T22:52:10.613Z,6.80
2022-09-18T22:54:46.843Z,6.67
2022-09-18T22:57:23.933Z,6.40
2022-09-18T22:59:53.257Z,6.27
2022-09-18T23:02:23.249Z,6.37
2022-09-18T23:04:51.897Z,9.97
2022-09-18T23:07:19.821Z,9.40
2022-09-18T23:09:59.356Z,9.40
2022-09-18T23:12:27.150Z,6.97
2022-09-18T23:14:58.427Z,11.63
2022-09-18T23:17:31.370Z,10.83
2022-09-18T23:19:59.600Z,8.07
2022-09-18T23:22:27.375Z,8.67
2022-09-18T23:24:55.193Z,6.77
2022-09-18T23:27:23.117Z,6.77
2022-09-18T23:29:52.981Z,9.67
2022-09-18T23:32:22.439Z,7.63
2022-09-18T23:34:50.508Z,9.80
2022-09-18T23:37:18.314Z,10.60
2022-09-18T23:39:46.195Z,10.63
2022-09-18T23:42:14.054Z,7.07
2022-09-18T23:44:41.911Z,6.60
2022-09-18T23:47:09.941Z,6.90
2022-09-18T23:49:39.386Z,6.87
2022-09-18T23:52:07.216Z,7.37
2022-09-18T23:54:35.089Z,7.50
2022-09-18T23:57:04.591Z,10.90
2022-09-18T23:59:39.282Z,6.70
